sensor_id;sensor_type;location;lat;lon;timestamp;pressure;altitude;pressure_sealevel;temperature;humidity
42601;BME280;28229;48.856;9.088;2023-02-28T00:00:21;98649.00;;;-2.93;63.05
42601;BME280;28229;48.856;9.088;2023-02-28T00:02:48;98640.94;;;-2.89;63.00
42601;BME280;28229;48.856;9.088;2023-02-28T00:05:18;98643.50;;;-2.89;63.66
42601;BME280;28229;48.856;9.088;2023-02-28T00:07:45;98640.22;;;-2.91;63.72
42601;BME280;28229;48.856;9.088;2023-02-28T00:10:14;98645.00;;;-2.97;63.76
42601;BME280;28229;48.856;9.088;2023-02-28T00:12:40;98647.22;;;-3.04;64.34
42601;BME280;28229;48.856;9.088;2023-02-28T00:15:10;98636.81;;;-3.02;64.66
42601;BME280;28229;48.856;9.088;2023-02-28T00:17:37;98639.75;;;-2.96;64.60
42601;BME280;28229;48.856;9.088;2023-02-28T00:20:05;98637.50;;;-3.00;65.39
42601;BME280;28229;48.856;9.088;2023-02-28T00:22:37;98639.94;;;-3.10;65.51
42601;BME280;28229;48.856;9.088;2023-02-28T00:25:04;98641.47;;;-3.08;65.77
42601;BME280;28229;48.856;9.088;2023-02-28T00:27:34;98640.66;;;-3.08;65.97
42601;BME280;28229;48.856;9.088;2023-02-28T00:30:00;98639.59;;;-3.06;66.16
42601;BME280;28229;48.856;9.088;2023-02-28T00:32:26;98641.16;;;-3.03;66.45
42601;BME280;28229;48.856;9.088;2023-02-28T00:34:53;98643.00;;;-3.05;66.60
42601;BME280;28229;48.856;9.088;2023-02-28T00:37:19;98637.97;;;-3.07;66.79
42601;BME280;28229;48.856;9.088;2023-02-28T00:39:45;98637.50;;;-3.12;67.16
42601;BME280;28229;48.856;9.088;2023-02-28T00:42:11;98636.31;;;-3.08;67.12
42601;BME280;28229;48.856;9.088;2023-02-28T00:44:37;98637.34;;;-3.10;67.58
42601;BME280;28229;48.856;9.088;2023-02-28T00:47:04;98640.78;;;-3.10;67.71
42601;BME280;28229;48.856;9.088;2023-02-28T00:49:30;98638.41;;;-3.13;68.18
42601;BME280;28229;48.856;9.088;2023-02-28T00:51:56;98637.72;;;-3.15;68.32
42601;BME280;28229;48.856;9.088;2023-02-28T00:54:23;98631.50;;;-3.12;68.81
42601;BME280;28229;48.856;9.088;2023-02-28T00:56:50;98633.25;;;-3.13;68.93
42601;BME280;28229;48.856;9.088;2023-02-28T00:59:17;98631.63;;;-3.14;68.98
42601;BME280;28229;48.856;9.088;2023-02-28T01:01:47;98633.38;;;-3.14;69.10
42601;BME280;28229;48.856;9.088;2023-02-28T01:04:14;98632.56;;;-3.15;69.70
42601;BME280;28229;48.856;9.088;2023-02-28T01:06:40;98638.63;;;-3.16;69.94
42601;BME280;28229;48.856;9.088;2023-02-28T01:09:10;98627.03;;;-3.21;70.24
42601;BME280;28229;48.856;9.088;2023-02-28T01:11:37;98631.28;;;-3.20;70.69
42601;BME280;28229;48.856;9.088;2023-02-28T01:14:03;98637.69;;;-3.26;70.84
42601;BME280;28229;48.856;9.088;2023-02-28T01:16:30;98629.50;;;-3.20;70.90
42601;BME280;28229;48.856;9.088;2023-02-28T01:18:56;98625.53;;;-3.24;71.30
42601;BME280;28229;48.856;9.088;2023-02-28T01:21:24;98625.16;;;-3.31;71.61
42601;BME280;28229;48.856;9.088;2023-02-28T01:23:51;98623.88;;;-3.25;71.68
42601;BME280;28229;48.856;9.088;2023-02-28T01:26:20;98622.47;;;-3.29;72.16
42601;BME280;28229;48.856;9.088;2023-02-28T01:28:49;98620.38;;;-3.24;71.94
42601;BME280;28229;48.856;9.088;2023-02-28T01:31:16;98626.91;;;-3.31;72.44
42601;BME280;28229;48.856;9.088;2023-02-28T01:33:42;98624.94;;;-3.28;72.82
42601;BME280;28229;48.856;9.088;2023-02-28T01:36:26;98627.81;;;-3.32;72.75
42601;BME280;28229;48.856;9.088;2023-02-28T01:38:53;98625.25;;;-3.32;73.13
42601;BME280;28229;48.856;9.088;2023-02-28T01:41:29;98617.03;;;-3.37;73.59
42601;BME280;28229;48.856;9.088;2023-02-28T01:44:07;98621.50;;;-3.39;73.75
42601;BME280;28229;48.856;9.088;2023-02-28T01:46:35;98631.78;;;-3.39;74.01
42601;BME280;28229;48.856;9.088;2023-02-28T01:49:03;98626.41;;;-3.36;73.93
42601;BME280;28229;48.856;9.088;2023-02-28T01:51:41;98631.06;;;-3.41;74.42
42601;BME280;28229;48.856;9.088;2023-02-28T01:54:19;98624.97;;;-3.40;74.16
42601;BME280;28229;48.856;9.088;2023-02-28T01:56:58;98620.88;;;-3.43;74.42
42601;BME280;28229;48.856;9.088;2023-02-28T01:59:35;98624.16;;;-3.41;74.51
42601;BME280;28229;48.856;9.088;2023-02-28T02:02:05;98621.28;;;-3.36;74.33
42601;BME280;28229;48.856;9.088;2023-02-28T02:04:40;98612.19;;;-3.53;75.08
42601;BME280;28229;48.856;9.088;2023-02-28T02:07:08;98616.06;;;-3.48;74.80
42601;BME280;28229;48.856;9.088;2023-02-28T02:09:35;98611.06;;;-3.49;74.71
42601;BME280;28229;48.856;9.088;2023-02-28T02:15:07;98606.03;;;-3.51;75.22
42601;BME280;28229;48.856;9.088;2023-02-28T02:17:44;98601.78;;;-3.52;75.42
42601;BME280;28229;48.856;9.088;2023-02-28T02:25:54;98598.06;;;-3.48;75.43
42601;BME280;28229;48.856;9.088;2023-02-28T02:34:45;98595.47;;;-3.59;76.01
42601;BME280;28229;48.856;9.088;2023-02-28T02:37:27;98593.09;;;-3.62;76.38
42601;BME280;28229;48.856;9.088;2023-02-28T02:42:50;98592.41;;;-3.64;76.83
42601;BME280;28229;48.856;9.088;2023-02-28T02:45:23;98587.75;;;-3.59;76.92
42601;BME280;28229;48.856;9.088;2023-02-28T02:47:51;98587.63;;;-3.57;76.57
42601;BME280;28229;48.856;9.088;2023-02-28T02:50:25;98599.19;;;-3.63;76.69
42601;BME280;28229;48.856;9.088;2023-02-28T02:52:56;98596.13;;;-3.68;77.11
42601;BME280;28229;48.856;9.088;2023-02-28T02:55:24;98596.13;;;-3.68;77.46
42601;BME280;28229;48.856;9.088;2023-02-28T02:57:58;98592.03;;;-3.71;77.80
42601;BME280;28229;48.856;9.088;2023-02-28T03:00:32;98595.41;;;-3.70;77.82
42601;BME280;28229;48.856;9.088;2023-02-28T03:03:01;98587.81;;;-3.72;78.36
42601;BME280;28229;48.856;9.088;2023-02-28T03:05:38;98592.41;;;-3.64;78.10
42601;BME280;28229;48.856;9.088;2023-02-28T03:08:07;98594.25;;;-3.66;78.35
42601;BME280;28229;48.856;9.088;2023-02-28T03:10:37;98594.38;;;-3.68;78.76
42601;BME280;28229;48.856;9.088;2023-02-28T03:15:58;98597.91;;;-3.57;78.93
42601;BME280;28229;48.856;9.088;2023-02-28T03:27:11;98602.00;;;-3.55;79.14
42601;BME280;28229;48.856;9.088;2023-02-28T03:30:03;98600.19;;;-3.53;79.34
42601;BME280;28229;48.856;9.088;2023-02-28T03:32:38;98601.31;;;-3.57;79.78
42601;BME280;28229;48.856;9.088;2023-02-28T03:35:08;98596.63;;;-3.63;80.13
42601;BME280;28229;48.856;9.088;2023-02-28T03:37:39;98601.78;;;-3.52;79.69
42601;BME280;28229;48.856;9.088;2023-02-28T03:40:17;98593.75;;;-3.47;79.51
42601;BME280;28229;48.856;9.088;2023-02-28T03:42:48;98596.34;;;-3.36;79.53
42601;BME280;28229;48.856;9.088;2023-02-28T03:45:20;98596.34;;;-3.36;79.27
42601;BME280;28229;48.856;9.088;2023-02-28T03:47:53;98591.81;;;-3.32;79.33
42601;BME280;28229;48.856;9.088;2023-02-28T03:50:40;98592.09;;;-3.48;79.81
42601;BME280;28229;48.856;9.088;2023-02-28T03:53:21;98595.75;;;-3.39;79.60
42601;BME280;28229;48.856;9.088;2023-02-28T03:55:59;98595.53;;;-3.36;79.45
42601;BME280;28229;48.856;9.088;2023-02-28T04:03:38;98592.16;;;-3.37;79.94
42601;BME280;28229;48.856;9.088;2023-02-28T04:06:07;98592.75;;;-3.33;79.95
42601;BME280;28229;48.856;9.088;2023-02-28T04:08:34;98597.53;;;-3.29;79.74
42601;BME280;28229;48.856;9.088;2023-02-28T04:11:06;98598.34;;;-3.28;79.88
42601;BME280;28229;48.856;9.088;2023-02-28T04:13:39;98603.06;;;-3.22;79.61
42601;BME280;28229;48.856;9.088;2023-02-28T04:16:08;98599.22;;;-3.16;79.35
42601;BME280;28229;48.856;9.088;2023-02-28T04:18:38;98606.47;;;-3.10;79.31
42601;BME280;28229;48.856;9.088;2023-02-28T04:21:05;98603.69;;;-3.07;79.10
42601;BME280;28229;48.856;9.088;2023-02-28T04:23:32;98600.50;;;-3.11;79.42
42601;BME280;28229;48.856;9.088;2023-02-28T04:25:58;98601.94;;;-3.07;79.42
42601;BME280;28229;48.856;9.088;2023-02-28T04:28:24;98604.03;;;-3.12;79.71
42601;BME280;28229;48.856;9.088;2023-02-28T04:30:55;98599.13;;;-3.03;79.10
42601;BME280;28229;48.856;9.088;2023-02-28T04:33:22;98604.03;;;-3.00;79.26
42601;BME280;28229;48.856;9.088;2023-02-28T04:35:48;98603.56;;;-2.94;79.13
42601;BME280;28229;48.856;9.088;2023-02-28T04:38:23;98594.00;;;-2.92;78.92
42601;BME280;28229;48.856;9.088;2023-02-28T04:40:49;98597.97;;;-2.99;79.12
42601;BME280;28229;48.856;9.088;2023-02-28T04:43:15;98596.44;;;-2.91;78.78
42601;BME280;28229;48.856;9.088;2023-02-28T04:45:42;98595.84;;;-2.94;79.04
42601;BME280;28229;48.856;9.088;2023-02-28T04:48:08;98592.34;;;-2.93;79.27
42601;BME280;28229;48.856;9.088;2023-02-28T04:50:34;98596.09;;;-2.86;78.55
42601;BME280;28229;48.856;9.088;2023-02-28T04:53:00;98594.44;;;-2.87;78.37
42601;BME280;28229;48.856;9.088;2023-02-28T04:55:26;98590.38;;;-2.90;78.83
42601;BME280;28229;48.856;9.088;2023-02-28T04:57:52;98599.75;;;-2.89;78.81
42601;BME280;28229;48.856;9.088;2023-02-28T05:00:19;98590.72;;;-2.83;78.59
42601;BME280;28229;48.856;9.088;2023-02-28T05:02:45;98595.88;;;-2.83;78.51
42601;BME280;28229;48.856;9.088;2023-02-28T05:05:11;98603.81;;;-2.86;78.53
42601;BME280;28229;48.856;9.088;2023-02-28T05:07:44;98594.13;;;-2.82;78.71
42601;BME280;28229;48.856;9.088;2023-02-28T05:10:11;98595.78;;;-2.81;78.43
42601;BME280;28229;48.856;9.088;2023-02-28T05:12:37;98599.84;;;-2.79;78.71
42601;BME280;28229;48.856;9.088;2023-02-28T05:15:05;98603.59;;;-2.83;78.53
42601;BME280;28229;48.856;9.088;2023-02-28T05:17:31;98598.69;;;-2.75;78.25
42601;BME280;28229;48.856;9.088;2023-02-28T05:19:57;98600.22;;;-2.72;78.23
42601;BME280;28229;48.856;9.088;2023-02-28T05:22:23;98601.84;;;-2.82;78.80
42601;BME280;28229;48.856;9.088;2023-02-28T05:24:49;98599.84;;;-2.79;79.02
42601;BME280;28229;48.856;9.088;2023-02-28T05:27:15;98605.38;;;-2.72;78.57
42601;BME280;28229;48.856;9.088;2023-02-28T05:29:42;98604.88;;;-2.66;78.31
42601;BME280;28229;48.856;9.088;2023-02-28T05:32:12;98604.56;;;-2.73;78.22
42601;BME280;28229;48.856;9.088;2023-02-28T05:34:39;98606.06;;;-2.70;78.00
42601;BME280;28229;48.856;9.088;2023-02-28T05:37:06;98604.06;;;-2.66;78.05
42601;BME280;28229;48.856;9.088;2023-02-28T05:39:34;98601.97;;;-2.73;78.11
42601;BME280;28229;48.856;9.088;2023-02-28T05:42:00;98603.00;;;-2.64;78.11
42601;BME280;28229;48.856;9.088;2023-02-28T05:44:26;98606.53;;;-2.65;78.06
42601;BME280;28229;48.856;9.088;2023-02-28T05:46:55;98605.97;;;-2.69;77.80
42601;BME280;28229;48.856;9.088;2023-02-28T05:49:23;98607.13;;;-2.61;77.62
42601;BME280;28229;48.856;9.088;2023-02-28T05:51:50;98601.50;;;-2.66;77.53
42601;BME280;28229;48.856;9.088;2023-02-28T05:54:16;98609.56;;;-2.71;77.86
42601;BME280;28229;48.856;9.088;2023-02-28T05:56:42;98607.56;;;-2.68;78.08
42601;BME280;28229;48.856;9.088;2023-02-28T05:59:14;98616.72;;;-2.63;77.54
42601;BME280;28229;48.856;9.088;2023-02-28T06:01:45;98614.59;;;-2.70;78.06
42601;BME280;28229;48.856;9.088;2023-02-28T06:04:16;98611.91;;;-2.68;77.81
42601;BME280;28229;48.856;9.088;2023-02-28T06:06:45;98603.28;;;-2.67;77.76
42601;BME280;28229;48.856;9.088;2023-02-28T06:09:12;98620.00;;;-2.73;78.09
42601;BME280;28229;48.856;9.088;2023-02-28T06:11:39;98616.97;;;-2.66;77.74
42601;BME280;28229;48.856;9.088;2023-02-28T06:14:05;98616.03;;;-2.65;77.70
42601;BME280;28229;48.856;9.088;2023-02-28T06:16:33;98621.28;;;-2.67;77.54
42601;BME280;28229;48.856;9.088;2023-02-28T06:19:02;98623.28;;;-2.71;77.58
42601;BME280;28229;48.856;9.088;2023-02-28T06:21:29;98618.72;;;-2.67;77.62
42601;BME280;28229;48.856;9.088;2023-02-28T06:23:58;98620.94;;;-2.62;77.57
42601;BME280;28229;48.856;9.088;2023-02-28T06:26:25;98625.84;;;-2.59;77.56
42601;BME280;28229;48.856;9.088;2023-02-28T06:28:52;98621.63;;;-2.60;77.66
42601;BME280;28229;48.856;9.088;2023-02-28T06:31:19;98625.81;;;-2.03;89.32
42601;BME280;28229;48.856;9.088;2023-02-28T06:33:45;98629.72;;;-2.08;77.35
42601;BME280;28229;48.856;9.088;2023-02-28T06:36:13;98630.19;;;-2.26;76.92
42601;BME280;28229;48.856;9.088;2023-02-28T06:38:43;98632.31;;;-2.31;76.68
42601;BME280;28229;48.856;9.088;2023-02-28T06:41:09;98637.09;;;-2.38;76.59
42601;BME280;28229;48.856;9.088;2023-02-28T06:43:40;98639.69;;;-2.49;77.00
42601;BME280;28229;48.856;9.088;2023-02-28T06:46:08;98639.47;;;-2.46;77.00
42601;BME280;28229;48.856;9.088;2023-02-28T06:48:36;98642.75;;;-2.44;76.67
42601;BME280;28229;48.856;9.088;2023-02-28T06:51:21;98647.88;;;-2.44;77.00
42601;BME280;28229;48.856;9.088;2023-02-28T06:53:48;98648.09;;;-2.36;76.50
42601;BME280;28229;48.856;9.088;2023-02-28T06:56:16;98655.94;;;-2.37;76.91
42601;BME280;28229;48.856;9.088;2023-02-28T06:58:46;98648.09;;;-2.36;76.90
42601;BME280;28229;48.856;9.088;2023-02-28T07:01:14;98643.66;;;-2.34;76.76
42601;BME280;28229;48.856;9.088;2023-02-28T07:03:40;98654.09;;;-2.35;76.24
42601;BME280;28229;48.856;9.088;2023-02-28T07:06:07;98651.06;;;-2.40;76.64
42601;BME280;28229;48.856;9.088;2023-02-28T07:08:34;98654.09;;;-2.35;76.18
42601;BME280;28229;48.856;9.088;2023-02-28T07:11:02;98653.03;;;-2.33;75.93
42601;BME280;28229;48.856;9.088;2023-02-28T07:13:29;98655.72;;;-2.34;75.89
42601;BME280;28229;48.856;9.088;2023-02-28T07:15:56;98659.84;;;-2.32;75.75
42601;BME280;28229;48.856;9.088;2023-02-28T07:18:23;98670.84;;;-2.30;75.64
42601;BME280;28229;48.856;9.088;2023-02-28T07:20:50;98665.22;;;-2.35;75.45
42601;BME280;28229;48.856;9.088;2023-02-28T07:23:16;98663.34;;;-2.33;75.32
42601;BME280;28229;48.856;9.088;2023-02-28T07:25:43;98659.84;;;-2.32;75.39
42601;BME280;28229;48.856;9.088;2023-02-28T07:28:09;98658.88;;;-2.31;75.41
42601;BME280;28229;48.856;9.088;2023-02-28T07:30:36;98657.03;;;-2.17;75.29
42601;BME280;28229;48.856;9.088;2023-02-28T07:33:03;98664.63;;;-2.16;74.68
42601;BME280;28229;48.856;9.088;2023-02-28T07:35:30;98662.19;;;-2.17;75.08
42601;BME280;28229;48.856;9.088;2023-02-28T07:37:58;98661.47;;;-2.08;74.93
42601;BME280;28229;48.856;9.088;2023-02-28T07:40:25;98664.50;;;-2.14;74.92
42601;BME280;28229;48.856;9.088;2023-02-28T07:43:00;98671.53;;;-2.16;75.24
42601;BME280;28229;48.856;9.088;2023-02-28T07:45:29;98676.69;;;-2.16;75.66
42601;BME280;28229;48.856;9.088;2023-02-28T07:47:57;98679.41;;;-2.06;74.72
42601;BME280;28229;48.856;9.088;2023-02-28T07:50:23;98669.41;;;-2.11;74.60
42601;BME280;28229;48.856;9.088;2023-02-28T07:52:50;98669.66;;;-2.14;74.87
42601;BME280;28229;48.856;9.088;2023-02-28T07:55:16;98669.41;;;-2.11;74.80
42601;BME280;28229;48.856;9.088;2023-02-28T07:57:43;98671.59;;;-1.84;78.53
42601;BME280;28229;48.856;9.088;2023-02-28T08:00:10;98669.38;;;-1.77;74.26
42601;BME280;28229;48.856;9.088;2023-02-28T08:02:39;98669.88;;;-1.95;74.47
42601;BME280;28229;48.856;9.088;2023-02-28T08:05:06;98671.75;;;-1.85;73.95
42601;BME280;28229;48.856;9.088;2023-02-28T08:07:35;98665.97;;;-1.89;74.47
42601;BME280;28229;48.856;9.088;2023-02-28T08:10:01;98674.78;;;-1.92;74.09
42601;BME280;28229;48.856;9.088;2023-02-28T08:12:29;98678.44;;;-1.94;74.04
42601;BME280;28229;48.856;9.088;2023-02-28T08:14:55;98675.88;;;-1.94;74.14
42601;BME280;28229;48.856;9.088;2023-02-28T08:17:24;98689.56;;;-1.94;73.94
42601;BME280;28229;48.856;9.088;2023-02-28T08:19:52;98670.09;;;-1.86;73.91
42601;BME280;28229;48.856;9.088;2023-02-28T08:22:19;98677.38;;;-1.92;74.09
42601;BME280;28229;48.856;9.088;2023-02-28T08:24:45;98681.69;;;-1.81;74.43
42601;BME280;28229;48.856;9.088;2023-02-28T08:27:11;98683.66;;;-1.73;73.66
42601;BME280;28229;48.856;9.088;2023-02-28T08:29:38;98682.59;;;-1.59;73.76
42601;BME280;28229;48.856;9.088;2023-02-28T08:32:06;98687.16;;;-1.63;73.08
42601;BME280;28229;48.856;9.088;2023-02-28T08:34:32;98687.41;;;-1.66;72.67
42601;BME280;28229;48.856;9.088;2023-02-28T08:36:58;98690.34;;;-1.70;72.24
42601;BME280;28229;48.856;9.088;2023-02-28T08:39:25;98687.03;;;-1.61;72.81
42601;BME280;28229;48.856;9.088;2023-02-28T08:41:53;98692.78;;;-1.58;72.20
42601;BME280;28229;48.856;9.088;2023-02-28T08:44:19;98695.59;;;-1.61;72.24
42601;BME280;28229;48.856;9.088;2023-02-28T08:46:46;98689.72;;;-1.51;72.27
42601;BME280;28229;48.856;9.088;2023-02-28T08:49:19;98696.75;;;-1.54;72.45
42601;BME280;28229;48.856;9.088;2023-02-28T08:51:48;98686.44;;;-1.54;71.54
42601;BME280;28229;48.856;9.088;2023-02-28T08:54:14;98695.38;;;-1.58;71.98
42601;BME280;28229;48.856;9.088;2023-02-28T08:56:46;98699.44;;;-1.55;71.86
42601;BME280;28229;48.856;9.088;2023-02-28T08:59:13;98705.22;;;-1.51;72.17
42601;BME280;28229;48.856;9.088;2023-02-28T09:01:40;98701.44;;;-1.47;71.87
42601;BME280;28229;48.856;9.088;2023-02-28T09:04:15;98700.28;;;-1.55;71.63
42601;BME280;28229;48.856;9.088;2023-02-28T09:06:41;98698.38;;;-1.41;71.27
42601;BME280;28229;48.856;9.088;2023-02-28T09:09:08;98694.97;;;-1.42;71.50
42601;BME280;28229;48.856;9.088;2023-02-28T09:11:35;98710.78;;;-1.35;71.03
42601;BME280;28229;48.856;9.088;2023-02-28T09:14:02;98700.19;;;-1.32;70.92
42601;BME280;28229;48.856;9.088;2023-02-28T09:16:31;98702.44;;;-1.27;70.96
42601;BME280;28229;48.856;9.088;2023-02-28T09:18:57;98708.41;;;-1.27;70.59
42601;BME280;28229;48.856;9.088;2023-02-28T09:21:23;98696.03;;;-1.12;70.07
42601;BME280;28229;48.856;9.088;2023-02-28T09:23:50;98700.25;;;-1.11;69.64
42601;BME280;28229;48.856;9.088;2023-02-28T09:26:18;98702.03;;;-1.11;69.52
42601;BME280;28229;48.856;9.088;2023-02-28T09:28:45;98699.88;;;-1.06;69.74
42601;BME280;28229;48.856;9.088;2023-02-28T09:31:14;98705.22;;;-0.98;68.83
42601;BME280;28229;48.856;9.088;2023-02-28T09:33:41;98711.41;;;-0.89;68.51
42601;BME280;28229;48.856;9.088;2023-02-28T09:36:07;98711.94;;;-0.74;68.40
42601;BME280;28229;48.856;9.088;2023-02-28T09:38:34;98699.28;;;-0.78;68.22
42601;BME280;28229;48.856;9.088;2023-02-28T09:41:04;98705.13;;;-0.75;67.97
42601;BME280;28229;48.856;9.088;2023-02-28T09:43:38;98715.53;;;-0.66;68.07
42601;BME280;28229;48.856;9.088;2023-02-28T09:46:18;98714.13;;;-0.49;68.04
42601;BME280;28229;48.856;9.088;2023-02-28T09:48:48;98712.56;;;-0.40;66.53
42601;BME280;28229;48.856;9.088;2023-02-28T09:53:57;98714.00;;;-0.26;65.70
42601;BME280;28229;48.856;9.088;2023-02-28T09:56:33;98715.88;;;-0.28;66.02
42601;BME280;28229;48.856;9.088;2023-02-28T10:01:43;98720.53;;;-0.22;65.45
42601;BME280;28229;48.856;9.088;2023-02-28T10:07:02;98710.69;;;0.03;63.96
42601;BME280;28229;48.856;9.088;2023-02-28T10:09:33;98712.50;;;0.12;64.17
42601;BME280;28229;48.856;9.088;2023-02-28T10:12:05;98717.56;;;0.23;63.13
42601;BME280;28229;48.856;9.088;2023-02-28T10:14:33;98712.56;;;0.31;61.11
42601;BME280;28229;48.856;9.088;2023-02-28T10:17:12;98715.28;;;0.30;60.61
42601;BME280;28229;48.856;9.088;2023-02-28T10:20:00;98717.06;;;0.39;60.66
42601;BME280;28229;48.856;9.088;2023-02-28T10:22:37;98720.91;;;0.45;59.41
42601;BME280;28229;48.856;9.088;2023-02-28T10:25:18;98727.31;;;0.50;59.62
42601;BME280;28229;48.856;9.088;2023-02-28T10:27:45;98734.66;;;0.55;58.99
42601;BME280;28229;48.856;9.088;2023-02-28T10:30:12;98729.78;;;0.62;58.47
42601;BME280;28229;48.856;9.088;2023-02-28T10:32:51;98726.00;;;0.75;58.67
42601;BME280;28229;48.856;9.088;2023-02-28T10:35:24;98733.38;;;0.90;58.24
42601;BME280;28229;48.856;9.088;2023-02-28T10:37:55;98736.38;;;0.95;58.00
42601;BME280;28229;48.856;9.088;2023-02-28T10:43:03;98727.91;;;1.12;57.98
42601;BME280;28229;48.856;9.088;2023-02-28T10:45:33;98723.25;;;1.26;57.79
42601;BME280;28229;48.856;9.088;2023-02-28T10:53:24;98726.22;;;1.50;56.23
42601;BME280;28229;48.856;9.088;2023-02-28T10:58:25;98728.94;;;1.59;55.95
42601;BME280;28229;48.856;9.088;2023-02-28T11:00:52;98715.53;;;1.73;55.33
42601;BME280;28229;48.856;9.088;2023-02-28T11:03:30;98719.28;;;1.88;55.84
42601;BME280;28229;48.856;9.088;2023-02-28T11:05:57;98715.53;;;2.01;55.45
42601;BME280;28229;48.856;9.088;2023-02-28T11:08:23;98716.28;;;2.21;54.43
42601;BME280;28229;48.856;9.088;2023-02-28T11:10:56;98715.63;;;2.37;54.82
42601;BME280;28229;48.856;9.088;2023-02-28T11:13:33;98714.50;;;2.67;53.96
42601;BME280;28229;48.856;9.088;2023-02-28T11:16:09;98718.00;;;2.94;53.35
42601;BME280;28229;48.856;9.088;2023-02-28T11:18:43;98716.38;;;3.11;51.89
42601;BME280;28229;48.856;9.088;2023-02-28T11:21:19;98705.78;;;3.30;52.02
42601;BME280;28229;48.856;9.088;2023-02-28T11:23:47;98709.00;;;3.50;51.39
42601;BME280;28229;48.856;9.088;2023-02-28T11:26:16;98695.84;;;3.78;51.95
42601;BME280;28229;48.856;9.088;2023-02-28T11:28:43;98687.38;;;4.10;49.92
42601;BME280;28229;48.856;9.088;2023-02-28T11:36:23;98696.81;;;4.95;48.48
42601;BME280;28229;48.856;9.088;2023-02-28T11:38:53;98698.91;;;5.49;48.62
42601;BME280;28229;48.856;9.088;2023-02-28T11:41:33;98693.38;;;5.52;45.86
42601;BME280;28229;48.856;9.088;2023-02-28T11:44:14;98690.03;;;5.83;47.56
42601;BME280;28229;48.856;9.088;2023-02-28T11:46:48;98682.44;;;6.13;45.66
42601;BME280;28229;48.856;9.088;2023-02-28T11:49:49;98685.22;;;6.11;44.46
42601;BME280;28229;48.856;9.088;2023-02-28T11:55:26;98681.09;;;6.56;43.77
42601;BME280;28229;48.856;9.088;2023-02-28T11:58:17;98677.91;;;6.69;43.92
42601;BME280;28229;48.856;9.088;2023-02-28T12:01:18;98682.19;;;6.62;43.43
42601;BME280;28229;48.856;9.088;2023-02-28T12:07:08;98677.31;;;7.05;42.15
42601;BME280;28229;48.856;9.088;2023-02-28T12:12:35;98674.88;;;7.56;40.93
42601;BME280;28229;48.856;9.088;2023-02-28T12:15:33;98666.94;;;7.50;41.66
42601;BME280;28229;48.856;9.088;2023-02-28T12:21:03;98669.28;;;7.44;40.44
42601;BME280;28229;48.856;9.088;2023-02-28T12:26:22;98661.59;;;7.43;41.05
42601;BME280;28229;48.856;9.088;2023-02-28T12:28:58;98666.13;;;7.49;39.90
42601;BME280;28229;48.856;9.088;2023-02-28T12:31:32;98666.03;;;7.57;39.84
42601;BME280;28229;48.856;9.088;2023-02-28T12:34:04;98654.28;;;7.98;40.03
42601;BME280;28229;48.856;9.088;2023-02-28T12:36:33;98655.13;;;7.69;39.47
42601;BME280;28229;48.856;9.088;2023-02-28T12:39:03;98651.50;;;7.40;40.05
42601;BME280;28229;48.856;9.088;2023-02-28T12:41:56;98652.47;;;7.24;40.59
42601;BME280;28229;48.856;9.088;2023-02-28T12:44:33;98651.66;;;7.00;40.86
42601;BME280;28229;48.856;9.088;2023-02-28T12:47:05;98653.53;;;7.15;40.31
42601;BME280;28229;48.856;9.088;2023-02-28T12:49:44;98651.22;;;7.50;41.39
42601;BME280;28229;48.856;9.088;2023-02-28T12:52:13;98649.69;;;7.55;39.67
42601;BME280;28229;48.856;9.088;2023-02-28T12:54:50;98642.28;;;7.59;39.28
42601;BME280;28229;48.856;9.088;2023-02-28T13:00:15;98638.34;;;7.10;41.39
42601;BME280;28229;48.856;9.088;2023-02-28T13:08:17;98640.28;;;7.46;40.09
42601;BME280;28229;48.856;9.088;2023-02-28T13:10:49;98634.53;;;7.66;39.38
42601;BME280;28229;48.856;9.088;2023-02-28T13:13:30;98634.53;;;7.51;38.88
42601;BME280;28229;48.856;9.088;2023-02-28T13:16:08;98637.78;;;7.68;38.96
42601;BME280;28229;48.856;9.088;2023-02-28T13:18:39;98630.81;;;7.75;39.00
42601;BME280;28229;48.856;9.088;2023-02-28T13:21:08;98632.38;;;7.54;39.42
42601;BME280;28229;48.856;9.088;2023-02-28T13:26:13;98642.22;;;7.14;39.92
42601;BME280;28229;48.856;9.088;2023-02-28T13:31:17;98629.53;;;7.41;39.32
42601;BME280;28229;48.856;9.088;2023-02-28T13:38:53;98623.16;;;6.91;41.30
42601;BME280;28229;48.856;9.088;2023-02-28T13:44:19;98629.38;;;7.57;39.76
42601;BME280;28229;48.856;9.088;2023-02-28T14:05:34;98623.44;;;7.49;39.91
42601;BME280;28229;48.856;9.088;2023-02-28T14:08:21;98630.19;;;7.43;39.33
42601;BME280;28229;48.856;9.088;2023-02-28T14:10:51;98627.13;;;7.54;39.54
42601;BME280;28229;48.856;9.088;2023-02-28T14:13:42;98629.00;;;7.90;39.19
42601;BME280;28229;48.856;9.088;2023-02-28T14:16:14;98621.00;;;7.47;39.29
42601;BME280;28229;48.856;9.088;2023-02-28T14:18:56;98638.47;;;7.32;39.02
42601;BME280;28229;48.856;9.088;2023-02-28T14:21:29;98631.09;;;7.35;39.95
42601;BME280;28229;48.856;9.088;2023-02-28T14:30:37;98624.41;;;7.62;38.73
42601;BME280;28229;48.856;9.088;2023-02-28T14:36:01;98620.09;;;7.40;39.70
42601;BME280;28229;48.856;9.088;2023-02-28T14:38:34;98618.63;;;7.22;40.02
42601;BME280;28229;48.856;9.088;2023-02-28T14:41:06;98615.53;;;7.19;40.58
42601;BME280;28229;48.856;9.088;2023-02-28T14:43:48;98622.41;;;7.65;40.15
42601;BME280;28229;48.856;9.088;2023-02-28T14:46:15;98618.41;;;7.98;38.78
42601;BME280;28229;48.856;9.088;2023-02-28T14:48:47;98620.34;;;7.75;39.07
42601;BME280;28229;48.856;9.088;2023-02-28T14:51:18;98629.19;;;7.59;40.36
42601;BME280;28229;48.856;9.088;2023-02-28T14:53:48;98630.72;;;7.83;40.68
42601;BME280;28229;48.856;9.088;2023-02-28T14:56:24;98625.94;;;8.23;39.42
42601;BME280;28229;48.856;9.088;2023-02-28T14:58:53;98627.22;;;8.27;38.28
42601;BME280;28229;48.856;9.088;2023-02-28T15:01:24;98634.66;;;8.09;38.64
42601;BME280;28229;48.856;9.088;2023-02-28T15:04:03;98639.75;;;7.95;38.95
42601;BME280;28229;48.856;9.088;2023-02-28T15:06:30;98643.81;;;7.83;38.93
42601;BME280;28229;48.856;9.088;2023-02-28T15:09:16;98636.69;;;7.47;39.45
42601;BME280;28229;48.856;9.088;2023-02-28T15:11:49;98630.16;;;7.28;40.15
42601;BME280;28229;48.856;9.088;2023-02-28T15:14:20;98630.66;;;6.94;40.95
42601;BME280;28229;48.856;9.088;2023-02-28T15:16:55;98647.75;;;6.81;41.32
42601;BME280;28229;48.856;9.088;2023-02-28T15:19:29;98637.88;;;6.69;41.09
42601;BME280;28229;48.856;9.088;2023-02-28T15:22:00;98643.78;;;6.39;41.66